sensor_id;sensor_type;location;lat;lon;timestamp;pressure;altitude;pressure_sealevel;temperature;humidity
46942;BME280;32676;52.630;4.896;2023-04-07T00:00:23;101937.09;;;9.20;84.62
46942;BME280;32676;52.630;4.896;2023-04-07T00:02:49;101938.81;;;9.25;84.46
46942;BME280;32676;52.630;4.896;2023-04-07T00:05:16;101940.56;;;9.22;84.45
46942;BME280;32676;52.630;4.896;2023-04-07T00:07:42;101942.28;;;9.23;84.49
46942;BME280;32676;52.630;4.896;2023-04-07T00:10:09;101943.16;;;9.26;84.39
46942;BME280;32676;52.630;4.896;2023-04-07T00:12:36;101928.31;;;9.21;84.46
46942;BME280;32676;52.630;4.896;2023-04-07T00:15:03;101923.09;;;9.18;84.28
46942;BME280;32676;52.630;4.896;2023-04-07T00:17:30;101924.84;;;9.19;84.53
46942;BME280;32676;52.630;4.896;2023-04-07T00:19:56;101914.38;;;9.16;84.34
46942;BME280;32676;52.630;4.896;2023-04-07T00:22:22;101896.94;;;9.12;84.19
46942;BME280;32676;52.630;4.896;2023-04-07T00:24:49;101881.22;;;9.09;84.24
46942;BME280;32676;52.630;4.896;2023-04-07T00:27:15;101879.50;;;9.08;84.42
46942;BME280;32676;52.630;4.896;2023-04-07T00:29:43;101887.38;;;9.10;84.50
46942;BME280;32676;52.630;4.896;2023-04-07T00:32:10;101884.69;;;9.11;84.35
46942;BME280;32676;52.630;4.896;2023-04-07T00:34:37;101884.69;;;9.11;84.45
46942;BME280;32676;52.630;4.896;2023-04-07T00:37:03;101898.69;;;9.13;84.41
46942;BME280;32676;52.630;4.896;2023-04-07T00:39:31;101903.03;;;9.16;84.44
46942;BME280;32676;52.630;4.896;2023-04-07T00:41:57;101910.91;;;9.17;84.48
46942;BME280;32676;52.630;4.896;2023-04-07T00:44:23;101903.91;;;9.16;84.43
46942;BME280;32676;52.630;4.896;2023-04-07T00:46:51;101909.13;;;9.16;84.20
46942;BME280;32676;52.630;4.896;2023-04-07T00:49:18;101923.09;;;9.20;84.27
46942;BME280;32676;52.630;4.896;2023-04-07T00:51:44;101922.22;;;9.21;84.43
46942;BME280;32676;52.630;4.896;2023-04-07T00:54:11;101924.84;;;9.21;84.34
46942;BME280;32676;52.630;4.896;2023-04-07T00:56:37;101922.22;;;9.21;84.41
46942;BME280;32676;52.630;4.896;2023-04-07T00:59:03;101941.44;;;9.25;84.41
46942;BME280;32676;52.630;4.896;2023-04-07T01:01:31;101944.91;;;9.25;84.45
46942;BME280;32676;52.630;4.896;2023-04-07T01:04:04;101948.38;;;9.27;84.29
46942;BME280;32676;52.630;4.896;2023-04-07T01:06:32;101923.09;;;9.21;84.35
46942;BME280;32676;52.630;4.896;2023-04-07T01:09:01;101919.59;;;9.19;84.09
46942;BME280;32676;52.630;4.896;2023-04-07T01:11:32;101896.94;;;9.15;83.99
46942;BME280;32676;52.630;4.896;2023-04-07T01:14:01;101910.03;;;9.17;84.05
46942;BME280;32676;52.630;4.896;2023-04-07T01:16:29;101908.28;;;9.17;83.86
46942;BME280;32676;52.630;4.896;2023-04-07T01:18:56;101910.91;;;9.17;83.99
46942;BME280;32676;52.630;4.896;2023-04-07T01:21:26;101910.03;;;9.17;84.12
46942;BME280;32676;52.630;4.896;2023-04-07T01:24:04;101899.56;;;9.15;83.81
46942;BME280;32676;52.630;4.896;2023-04-07T01:26:37;101897.78;;;9.16;83.97
46942;BME280;32676;52.630;4.896;2023-04-07T01:29:10;101864.75;;;8.95;83.85
46942;BME280;32676;52.630;4.896;2023-04-07T01:31:40;101902.16;;;9.15;84.04
46942;BME280;32676;52.630;4.896;2023-04-07T01:34:09;101910.03;;;9.17;83.98
46942;BME280;32676;52.630;4.896;2023-04-07T01:36:36;101911.75;;;9.19;84.13
46942;BME280;32676;52.630;4.896;2023-04-07T01:39:02;101900.41;;;9.17;84.11
46942;BME280;32676;52.630;4.896;2023-04-07T01:41:28;101903.03;;;9.16;83.89
46942;BME280;32676;52.630;4.896;2023-04-07T01:43:56;101897.78;;;9.16;83.87
46942;BME280;32676;52.630;4.896;2023-04-07T01:46:22;101899.56;;;9.15;83.91
46942;BME280;32676;52.630;4.896;2023-04-07T01:48:50;101901.28;;;9.15;83.80
46942;BME280;32676;52.630;4.896;2023-04-07T01:51:17;101882.97;;;9.13;83.82
46942;BME280;32676;52.630;4.896;2023-04-07T01:53:45;101879.47;;;9.11;83.74
46942;BME280;32676;52.630;4.896;2023-04-07T01:56:12;101875.97;;;9.12;83.48
46942;BME280;32676;52.630;4.896;2023-04-07T01:58:38;101871.59;;;9.11;83.54
46942;BME280;32676;52.630;4.896;2023-04-07T02:01:04;101874.25;;;9.10;83.46
46942;BME280;32676;52.630;4.896;2023-04-07T02:03:33;101868.13;;;9.08;83.43
46942;BME280;32676;52.630;4.896;2023-04-07T02:06:03;101857.69;;;9.06;83.46
46942;BME280;32676;52.630;4.896;2023-04-07T02:08:31;101855.94;;;9.05;83.51
46942;BME280;32676;52.630;4.896;2023-04-07T02:10:58;101848.09;;;9.02;83.46
46942;BME280;32676;52.630;4.896;2023-04-07T02:13:27;101834.13;;;9.00;83.60
46942;BME280;32676;52.630;4.896;2023-04-07T02:15:54;101823.69;;;8.97;83.96
46942;BME280;32676;52.630;4.896;2023-04-07T02:18:21;101793.13;;;8.91;83.79
46942;BME280;32676;52.630;4.896;2023-04-07T02:20:48;101773.09;;;8.86;84.07
46942;BME280;32676;52.630;4.896;2023-04-07T02:23:17;101764.38;;;8.83;84.42
46942;BME280;32676;52.630;4.896;2023-04-07T02:25:43;101773.09;;;8.86;84.58
46942;BME280;32676;52.630;4.896;2023-04-07T02:28:09;101759.16;;;8.83;84.76
46942;BME280;32676;52.630;4.896;2023-04-07T02:30:36;101764.38;;;8.83;84.93
46942;BME280;32676;52.630;4.896;2023-04-07T02:33:02;101767.88;;;8.86;84.85
46942;BME280;32676;52.630;4.896;2023-04-07T02:35:28;101773.09;;;8.86;84.83
46942;BME280;32676;52.630;4.896;2023-04-07T02:37:55;101776.63;;;8.86;84.92
46942;BME280;32676;52.630;4.896;2023-04-07T02:40:23;101770.47;;;8.86;84.84
46942;BME280;32676;52.630;4.896;2023-04-07T02:42:49;101775.72;;;8.87;84.93
46942;BME280;32676;52.630;4.896;2023-04-07T02:45:15;101784.44;;;8.88;84.64
46942;BME280;32676;52.630;4.896;2023-04-07T02:47:41;101783.56;;;8.89;84.72
46942;BME280;32676;52.630;4.896;2023-04-07T02:50:08;101772.22;;;8.87;84.66
46942;BME280;32676;52.630;4.896;2023-04-07T02:52:34;101769.63;;;8.87;84.81
46942;BME280;32676;52.630;4.896;2023-04-07T02:55:01;101767.00;;;8.85;84.83
46942;BME280;32676;52.630;4.896;2023-04-07T02:57:28;101722.69;;;8.62;84.64
46942;BME280;32676;52.630;4.896;2023-04-07T02:59:55;101742.59;;;8.78;84.78
46942;BME280;32676;52.630;4.896;2023-04-07T03:02:22;101736.50;;;8.76;84.87
46942;BME280;32676;52.630;4.896;2023-04-07T03:04:50;101717.31;;;8.74;85.09
46942;BME280;32676;52.630;4.896;2023-04-07T03:07:17;101712.09;;;8.71;85.20
46942;BME280;32676;52.630;4.896;2023-04-07T03:09:43;101731.28;;;8.76;85.29
46942;BME280;32676;52.630;4.896;2023-04-07T03:12:09;101716.47;;;8.74;85.43
46942;BME280;32676;52.630;4.896;2023-04-07T03:14:37;101725.19;;;8.74;85.48
46942;BME280;32676;52.630;4.896;2023-04-07T03:17:03;101724.31;;;8.75;85.63
46942;BME280;32676;52.630;4.896;2023-04-07T03:19:30;101727.78;;;8.74;85.60
46942;BME280;32676;52.630;4.896;2023-04-07T03:21:56;101703.38;;;8.71;85.52
46942;BME280;32676;52.630;4.896;2023-04-07T03:24:22;101708.59;;;8.72;85.67
46942;BME280;32676;52.630;4.896;2023-04-07T03:26:49;101717.31;;;8.73;85.53
46942;BME280;32676;52.630;4.896;2023-04-07T03:29:16;101720.84;;;8.73;85.70
46942;BME280;32676;52.630;4.896;2023-04-07T03:31:44;101721.72;;;8.72;85.55
46942;BME280;32676;52.630;4.896;2023-04-07T03:34:10;101722.59;;;8.71;85.61
46942;BME280;32676;52.630;4.896;2023-04-07T03:36:36;101719.94;;;8.73;85.58
46942;BME280;32676;52.630;4.896;2023-04-07T03:39:03;101718.22;;;8.73;85.53
46942;BME280;32676;52.630;4.896;2023-04-07T03:41:30;101711.22;;;8.72;85.40
46942;BME280;32676;52.630;4.896;2023-04-07T03:43:56;101715.59;;;8.73;85.43
46942;BME280;32676;52.630;4.896;2023-04-07T03:46:23;101729.56;;;8.75;85.58
46942;BME280;32676;52.630;4.896;2023-04-07T03:48:52;101722.56;;;8.74;85.47
46942;BME280;32676;52.630;4.896;2023-04-07T03:51:18;101722.56;;;8.74;85.36
46942;BME280;32676;52.630;4.896;2023-04-07T03:53:44;101735.66;;;8.76;85.15
46942;BME280;32676;52.630;4.896;2023-04-07T03:56:11;101749.59;;;8.81;85.20
46942;BME280;32676;52.630;4.896;2023-04-07T03:58:37;101761.78;;;8.83;85.14
46942;BME280;32676;52.630;4.896;2023-04-07T04:01:06;101767.88;;;8.86;85.14
46942;BME280;32676;52.630;4.896;2023-04-07T04:03:33;101773.09;;;8.86;85.01
46942;BME280;32676;52.630;4.896;2023-04-07T04:06:00;101765.25;;;8.86;84.82
46942;BME280;32676;52.630;4.896;2023-04-07T04:08:27;101760.91;;;8.84;84.88
46942;BME280;32676;52.630;4.896;2023-04-07T04:10:54;101761.78;;;8.83;84.84
46942;BME280;32676;52.630;4.896;2023-04-07T04:13:20;101746.09;;;8.80;84.72
46942;BME280;32676;52.630;4.896;2023-04-07T04:15:46;101743.50;;;8.79;84.76
46942;BME280;32676;52.630;4.896;2023-04-07T04:18:12;101725.19;;;8.74;84.63
46942;BME280;32676;52.630;4.896;2023-04-07T04:20:39;101696.44;;;8.68;84.67
46942;BME280;32676;52.630;4.896;2023-04-07T04:23:07;101700.78;;;8.69;84.48
46942;BME280;32676;52.630;4.896;2023-04-07T04:25:33;101702.53;;;8.70;84.46
46942;BME280;32676;52.630;4.896;2023-04-07T04:27:59;101706.84;;;8.71;84.39
46942;BME280;32676;52.630;4.896;2023-04-07T04:30:26;101721.69;;;8.74;84.51
46942;BME280;32676;52.630;4.896;2023-04-07T04:32:52;101714.72;;;8.73;84.45
46942;BME280;32676;52.630;4.896;2023-04-07T04:35:19;101706.84;;;8.71;84.32
46942;BME280;32676;52.630;4.896;2023-04-07T04:37:45;101704.28;;;8.70;84.50
46942;BME280;32676;52.630;4.896;2023-04-07T04:40:13;101708.59;;;8.72;84.48
46942;BME280;32676;52.630;4.896;2023-04-07T04:42:40;101703.38;;;8.69;84.45
46942;BME280;32676;52.630;4.896;2023-04-07T04:45:07;101697.28;;;8.69;84.50
46942;BME280;32676;52.630;4.896;2023-04-07T04:47:33;101699.91;;;8.70;84.42
46942;BME280;32676;52.630;4.896;2023-04-07T04:49:59;101709.47;;;8.71;84.40
46942;BME280;32676;52.630;4.896;2023-04-07T04:52:26;101713.84;;;8.72;84.33
46942;BME280;32676;52.630;4.896;2023-04-07T04:54:53;101715.59;;;8.73;84.34
46942;BME280;32676;52.630;4.896;2023-04-07T04:57:21;101735.63;;;8.77;84.25
46942;BME280;32676;52.630;4.896;2023-04-07T04:59:47;101717.31;;;8.74;84.06
46942;BME280;32676;52.630;4.896;2023-04-07T05:02:13;101733.03;;;8.77;83.95
46942;BME280;32676;52.630;4.896;2023-04-07T05:04:40;101726.03;;;8.76;84.02
46942;BME280;32676;52.630;4.896;2023-04-07T05:07:06;101726.03;;;8.76;83.92
46942;BME280;32676;52.630;4.896;2023-04-07T05:09:32;101743.47;;;8.80;83.88
46942;BME280;32676;52.630;4.896;2023-04-07T05:11:59;101742.56;;;8.81;84.09
46942;BME280;32676;52.630;4.896;2023-04-07T05:14:27;101746.06;;;8.82;84.00
46942;BME280;32676;52.630;4.896;2023-04-07T05:16:54;101752.19;;;8.82;83.72
46942;BME280;32676;52.630;4.896;2023-04-07T05:19:20;101743.47;;;8.80;83.70
46942;BME280;32676;52.630;4.896;2023-04-07T05:21:47;101735.63;;;8.79;83.70
46942;BME280;32676;52.630;4.896;2023-04-07T05:24:13;101719.06;;;8.75;83.85
46942;BME280;32676;52.630;4.896;2023-04-07T05:26:39;101721.69;;;8.75;84.05
46942;BME280;32676;52.630;4.896;2023-04-07T05:29:06;101719.06;;;8.75;84.08
46942;BME280;32676;52.630;4.896;2023-04-07T05:31:33;101714.72;;;8.73;83.99
46942;BME280;32676;52.630;4.896;2023-04-07T05:34:01;101713.00;;;8.72;84.11
46942;BME280;32676;52.630;4.896;2023-04-07T05:36:27;101707.75;;;8.72;84.02
46942;BME280;32676;52.630;4.896;2023-04-07T05:38:54;101713.84;;;8.72;84.03
46942;BME280;32676;52.630;4.896;2023-04-07T05:41:20;101703.38;;;8.71;84.04
46942;BME280;32676;52.630;4.896;2023-04-07T05:43:46;101699.91;;;8.70;83.77
46942;BME280;32676;52.630;4.896;2023-04-07T05:46:14;101704.28;;;8.70;83.79
46942;BME280;32676;52.630;4.896;2023-04-07T05:48:42;101714.72;;;8.73;83.79
46942;BME280;32676;52.630;4.896;2023-04-07T05:51:10;101709.47;;;8.73;83.94
46942;BME280;32676;52.630;4.896;2023-04-07T05:53:36;101725.16;;;8.76;83.92
46942;BME280;32676;52.630;4.896;2023-04-07T05:56:02;101720.78;;;8.76;83.96
46942;BME280;32676;52.630;4.896;2023-04-07T05:58:29;101729.50;;;8.78;83.99
46942;BME280;32676;52.630;4.896;2023-04-07T06:00:55;101736.50;;;8.79;83.87
46942;BME280;32676;52.630;4.896;2023-04-07T06:03:21;101753.06;;;8.81;83.90
46942;BME280;32676;52.630;4.896;2023-04-07T06:05:49;101746.06;;;8.82;83.71
46942;BME280;32676;52.630;4.896;2023-04-07T06:08:15;101760.91;;;8.84;83.64
46942;BME280;32676;52.630;4.896;2023-04-07T06:10:41;101759.13;;;8.85;83.62
46942;BME280;32676;52.630;4.896;2023-04-07T06:13:08;101762.63;;;8.86;83.32
46942;BME280;32676;52.630;4.896;2023-04-07T06:15:34;101757.38;;;8.86;83.31
46942;BME280;32676;52.630;4.896;2023-04-07T06:18:01;101769.63;;;8.87;83.09
46942;BME280;32676;52.630;4.896;2023-04-07T06:20:27;101774.84;;;8.90;83.13
46942;BME280;32676;52.630;4.896;2023-04-07T06:22:57;101789.66;;;8.92;83.25
46942;BME280;32676;52.630;4.896;2023-04-07T06:25:23;101795.75;;;8.93;83.11
46942;BME280;32676;52.630;4.896;2023-04-07T06:27:49;101791.41;;;8.93;83.21
46942;BME280;32676;52.630;4.896;2023-04-07T06:30:16;101813.22;;;8.97;83.11
46942;BME280;32676;52.630;4.896;2023-04-07T06:32:42;101834.13;;;9.00;83.30
46942;BME280;32676;52.630;4.896;2023-04-07T06:35:08;101825.41;;;9.01;83.20
46942;BME280;32676;52.630;4.896;2023-04-07T06:37:36;101841.09;;;9.04;83.26
46942;BME280;32676;52.630;4.896;2023-04-07T06:40:05;101851.53;;;9.07;83.24
46942;BME280;32676;52.630;4.896;2023-04-07T06:42:31;101867.25;;;9.10;83.22
46942;BME280;32676;52.630;4.896;2023-04-07T06:44:58;101874.19;;;9.14;83.21
46942;BME280;32676;52.630;4.896;2023-04-07T06:47:24;101888.16;;;9.16;83.09
46942;BME280;32676;52.630;4.896;2023-04-07T06:49:50;101891.69;;;9.17;83.06
46942;BME280;32676;52.630;4.896;2023-04-07T06:52:17;101914.34;;;9.22;83.18
46942;BME280;32676;52.630;4.896;2023-04-07T06:54:43;101930.03;;;9.26;82.94
46942;BME280;32676;52.630;4.896;2023-04-07T06:57:11;101931.78;;;9.27;82.89
46942;BME280;32676;52.630;4.896;2023-04-07T06:59:38;101940.50;;;9.29;82.84
46942;BME280;32676;52.630;4.896;2023-04-07T07:02:04;101956.22;;;9.32;82.74
46942;BME280;32676;52.630;4.896;2023-04-07T07:04:31;101970.19;;;9.37;82.49
46942;BME280;32676;52.630;4.896;2023-04-07T07:06:57;101962.31;;;9.34;82.36
46942;BME280;32676;52.630;4.896;2023-04-07T07:09:24;101950.97;;;9.32;82.04
46942;BME280;32676;52.630;4.896;2023-04-07T07:11:51;101949.22;;;9.31;81.82
46942;BME280;32676;52.630;4.896;2023-04-07T07:14:19;101937.88;;;9.27;81.57
46942;BME280;32676;52.630;4.896;2023-04-07T07:16:45;101923.94;;;9.23;81.69
46942;BME280;32676;52.630;4.896;2023-04-07T07:19:11;101926.53;;;9.27;81.28
46942;BME280;32676;52.630;4.896;2023-04-07T07:21:38;101952.69;;;9.33;81.25
46942;BME280;32676;52.630;4.896;2023-04-07T07:24:04;101962.31;;;9.35;81.13
46942;BME280;32676;52.630;4.896;2023-04-07T07:26:31;101952.69;;;9.33;80.85
46942;BME280;32676;52.630;4.896;2023-04-07T07:28:57;101942.25;;;9.30;80.84
46942;BME280;32676;52.630;4.896;2023-04-07T07:31:25;101958.84;;;9.33;80.55
46942;BME280;32676;52.630;4.896;2023-04-07T07:33:51;101952.69;;;9.33;80.27
46942;BME280;32676;52.630;4.896;2023-04-07T07:36:17;101943.13;;;9.29;80.41
46942;BME280;32676;52.630;4.896;2023-04-07T07:38:44;101941.38;;;9.29;80.16
46942;BME280;32676;52.630;4.896;2023-04-07T07:41:10;101946.59;;;9.31;79.89
46942;BME280;32676;52.630;4.896;2023-04-07T07:43:37;101955.31;;;9.33;79.94
46942;BME280;32676;52.630;4.896;2023-04-07T07:46:03;101972.81;;;9.37;80.06
46942;BME280;32676;52.630;4.896;2023-04-07T07:48:31;101985.88;;;9.40;80.06
46942;BME280;32676;52.630;4.896;2023-04-07T07:50:57;101992.00;;;9.40;79.98
46942;BME280;32676;52.630;4.896;2023-04-07T07:53:23;101995.47;;;9.44;80.26
46942;BME280;32676;52.630;4.896;2023-04-07T07:55:50;102005.94;;;9.46;79.99
46942;BME280;32676;52.630;4.896;2023-04-07T07:58:16;102008.53;;;9.47;80.04
46942;BME280;32676;52.630;4.896;2023-04-07T08:00:43;102012.06;;;9.46;80.05
46942;BME280;32676;52.630;4.896;2023-04-07T08:03:09;102017.25;;;9.49;80.18
46942;BME280;32676;52.630;4.896;2023-04-07T08:05:37;102030.38;;;9.52;80.21
46942;BME280;32676;52.630;4.896;2023-04-07T08:08:03;102033.00;;;9.52;80.05
46942;BME280;32676;52.630;4.896;2023-04-07T08:10:29;102060.91;;;9.59;79.83
46942;BME280;32676;52.630;4.896;2023-04-07T08:12:56;102101.97;;;9.68;79.84
46942;BME280;32676;52.630;4.896;2023-04-07T08:15:22;102131.66;;;9.75;79.80
46942;BME280;32676;52.630;4.896;2023-04-07T08:17:48;102137.75;;;9.78;79.99
46942;BME280;32676;52.630;4.896;2023-04-07T08:20:15;102156.09;;;9.82;79.54
46942;BME280;32676;52.630;4.896;2023-04-07T08:22:42;102141.25;;;9.79;79.11
46942;BME280;32676;52.630;4.896;2023-04-07T08:25:09;102121.19;;;9.73;78.98
46942;BME280;32676;52.630;4.896;2023-04-07T08:27:35;102127.31;;;9.74;78.72
46942;BME280;32676;52.630;4.896;2023-04-07T08:30:03;102147.38;;;9.79;79.07
46942;BME280;32676;52.630;4.896;2023-04-07T08:32:34;102139.50;;;9.78;79.01
46942;BME280;32676;52.630;4.896;2023-04-07T08:35:01;102149.13;;;9.80;79.07
46942;BME280;32676;52.630;4.896;2023-04-07T08:37:27;102163.09;;;9.83;79.12
46942;BME280;32676;52.630;4.896;2023-04-07T08:39:55;102165.72;;;9.84;79.25
46942;BME280;32676;52.630;4.896;2023-04-07T08:42:21;102149.13;;;9.80;79.26
46942;BME280;32676;52.630;4.896;2023-04-07T08:44:51;102122.03;;;9.74;79.50
46942;BME280;32676;52.630;4.896;2023-04-07T08:47:18;102108.94;;;9.71;79.45
46942;BME280;32676;52.630;4.896;2023-04-07T08:49:45;102108.94;;;9.71;79.63
46942;BME280;32676;52.630;4.896;2023-04-07T08:52:15;102101.06;;;9.71;79.97
46942;BME280;32676;52.630;4.896;2023-04-07T08:54:43;102101.94;;;9.71;80.04
46942;BME280;32676;52.630;4.896;2023-04-07T08:57:11;102094.97;;;9.69;80.46
46942;BME280;32676;52.630;4.896;2023-04-07T08:59:38;102076.59;;;9.66;80.78
46942;BME280;32676;52.630;4.896;2023-04-07T09:02:07;102097.59;;;9.69;80.90
46942;BME280;32676;52.630;4.896;2023-04-07T09:04:34;102114.19;;;9.72;81.32
46942;BME280;32676;52.630;4.896;2023-04-07T09:07:00;102100.19;;;9.70;81.33
46942;BME280;32676;52.630;4.896;2023-04-07T09:09:26;102106.31;;;9.71;81.57
46942;BME280;32676;52.630;4.896;2023-04-07T09:11:53;102103.69;;;9.72;81.74
46942;BME280;32676;52.630;4.896;2023-04-07T09:14:21;102119.41;;;9.74;81.86
46942;BME280;32676;52.630;4.896;2023-04-07T09:16:47;102131.63;;;9.78;82.15
46942;BME280;32676;52.630;4.896;2023-04-07T09:19:13;102115.03;;;9.73;82.00
46942;BME280;32676;52.630;4.896;2023-04-07T09:21:46;102115.03;;;9.73;82.32
46942;BME280;32676;52.630;4.896;2023-04-07T09:24:20;102115.94;;;9.73;82.50
46942;BME280;32676;52.630;4.896;2023-04-07T09:26:46;102118.53;;;9.75;82.74
46942;BME280;32676;52.630;4.896;2023-04-07T09:29:17;102123.78;;;9.75;83.02
46942;BME280;32676;52.630;4.896;2023-04-07T09:31:45;102140.34;;;9.80;83.04
46942;BME280;32676;52.630;4.896;2023-04-07T09:34:22;102142.13;;;9.79;83.28
46942;BME280;32676;52.630;4.896;2023-04-07T09:36:48;102134.25;;;9.78;83.38
46942;BME280;32676;52.630;4.896;2023-04-07T09:39:15;102127.28;;;9.77;83.55
46942;BME280;32676;52.630;4.896;2023-04-07T09:41:41;102109.78;;;9.73;83.75
46942;BME280;32676;52.630;4.896;2023-04-07T09:44:08;102136.00;;;9.79;83.79
46942;BME280;32676;52.630;4.896;2023-04-07T09:46:35;102146.50;;;9.80;83.86
46942;BME280;32676;52.630;4.896;2023-04-07T09:49:03;102143.88;;;9.80;83.48
46942;BME280;32676;52.630;4.896;2023-04-07T09:51:30;102170.94;;;9.87;83.39
46942;BME280;32676;52.630;4.896;2023-04-07T09:53:58;102191.00;;;9.93;83.60
46942;BME280;32676;52.630;4.896;2023-04-07T09:56:24;102225.13;;;9.97;83.67
46942;BME280;32676;52.630;4.896;2023-04-07T09:58:52;102223.38;;;9.99;83.67
46942;BME280;32676;52.630;4.896;2023-04-07T10:01:19;102226.84;;;9.98;83.54
46942;BME280;32676;52.630;4.896;2023-04-07T10:03:46;102216.41;;;9.95;83.36
46942;BME280;32676;52.630;4.896;2023-04-07T10:06:16;102226.00;;;9.99;83.56
46942;BME280;32676;52.630;4.896;2023-04-07T10:08:42;102237.34;;;10.02;83.61
46942;BME280;32676;52.630;4.896;2023-04-07T10:11:09;102246.09;;;10.04;83.47
46942;BME280;32676;52.630;4.896;2023-04-07T10:13:35;102263.59;;;10.08;83.54
46942;BME280;32676;52.630;4.896;2023-04-07T10:16:03;102254.81;;;10.09;83.68
46942;BME280;32676;52.630;4.896;2023-04-07T10:18:30;102254.81;;;10.06;83.61
46942;BME280;32676;52.630;4.896;2023-04-07T10:20:57;102254.81;;;10.06;83.38
46942;BME280;32676;52.630;4.896;2023-04-07T10:23:30;102249.56;;;10.06;83.17
46942;BME280;32676;52.630;4.896;2023-04-07T10:25:57;102249.56;;;10.06;83.02
46942;BME280;32676;52.630;4.896;2023-04-07T10:28:24;102257.44;;;10.06;82.94
46942;BME280;32676;52.630;4.896;2023-04-07T10:30:52;102223.38;;;9.99;82.74
46942;BME280;32676;52.630;4.896;2023-04-07T10:33:32;102208.53;;;9.95;83.03
46942;BME280;32676;52.630;4.896;2023-04-07T10:36:10;102214.63;;;9.96;83.17
46942;BME280;32676;52.630;4.896;2023-04-07T10:38:37;102235.59;;;10.04;83.20
46942;BME280;32676;52.630;4.896;2023-04-07T10:43:46;102265.31;;;10.09;83.59
46942;BME280;32676;52.630;4.896;2023-04-07T10:46:12;102282.78;;;10.13;83.47
46942;BME280;32676;52.630;4.896;2023-04-07T10:48:38;102286.28;;;10.15;83.21
46942;BME280;32676;52.630;4.896;2023-04-07T10:51:12;102284.53;;;10.14;83.07
46942;BME280;32676;52.630;4.896;2023-04-07T10:56:21;102275.81;;;10.12;82.63
46942;BME280;32676;52.630;4.896;2023-04-07T10:58:51;102270.56;;;10.10;82.51
46942;BME280;32676;52.630;4.896;2023-04-07T11:01:37;102296.75;;;10.18;82.45
46942;BME280;32676;52.630;4.896;2023-04-07T11:04:03;102342.22;;;10.29;82.37
46942;BME280;32676;52.630;4.896;2023-04-07T11:06:31;102373.75;;;10.35;82.07
46942;BME280;32676;52.630;4.896;2023-04-07T11:08:58;102406.09;;;10.44;81.57
46942;BME280;32676;52.630;4.896;2023-04-07T11:11:36;102448.94;;;10.55;81.49
46942;BME280;32676;52.630;4.896;2023-04-07T11:14:03;102491.00;;;10.64;81.35
46942;BME280;32676;52.630;4.896;2023-04-07T11:16:36;102529.47;;;10.73;81.36
46942;BME280;32676;52.630;4.896;2023-04-07T11:19:03;102536.50;;;10.75;81.36
46942;BME280;32676;52.630;4.896;2023-04-07T11:21:29;102536.50;;;10.75;80.79
46942;BME280;32676;52.630;4.896;2023-04-07T11:23:55;102555.75;;;10.81;80.35
46942;BME280;32676;52.630;4.896;2023-04-07T11:26:22;102546.97;;;10.79;79.99
46942;BME280;32676;52.630;4.896;2023-04-07T11:28:50;102554.00;;;10.80;79.97
46942;BME280;32676;52.630;4.896;2023-04-07T11:31:20;102550.50;;;10.78;80.19
46942;BME280;32676;52.630;4.896;2023-04-07T11:33:50;102542.59;;;10.76;79.70
46942;BME280;32676;52.630;4.896;2023-04-07T11:36:24;102536.50;;;10.75;79.92
46942;BME280;32676;52.630;4.896;2023-04-07T11:38:51;102490.09;;;10.65;79.94
46942;BME280;32676;52.630;4.896;2023-04-07T11:41:17;102462.09;;;10.58;79.81
46942;BME280;32676;52.630;4.896;2023-04-07T11:43:44;102444.59;;;10.55;79.93
46942;BME280;32676;52.630;4.896;2023-04-07T11:46:13;102481.34;;;10.63;80.06
46942;BME280;32676;52.630;4.896;2023-04-07T11:48:40;102508.47;;;10.70;79.96
46942;BME280;32676;52.630;4.896;2023-04-07T11:51:14;102527.69;;;10.75;80.02
46942;BME280;32676;52.630;4.896;2023-04-07T11:53:40;102535.59;;;10.75;79.60
46942;BME280;32676;52.630;4.896;2023-04-07T11:56:08;102521.59;;;10.73;79.53
46942;BME280;32676;52.630;4.896;2023-04-07T11:58:36;102508.47;;;10.71;79.19
46942;BME280;32676;52.630;4.896;2023-04-07T12:01:03;102569.72;;;10.86;79.46
46942;BME280;32676;52.630;4.896;2023-04-07T12:03:34;102642.44;;;11.01;79.21
46942;BME280;32676;52.630;4.896;2023-04-07T12:06:01;102678.31;;;11.09;78.94
46942;BME280;32676;52.630;4.896;2023-04-07T12:08:37;102723.91;;;11.21;78.85
46942;BME280;32676;52.630;4.896;2023-04-07T12:11:03;102734.41;;;11.24;78.70
46942;BME280;32676;52.630;4.896;2023-04-07T12:13:30;102748.41;;;11.26;78.40
46942;BME280;32676;52.630;4.896;2023-04-07T12:15:57;102736.16;;;11.25;77.92
46942;BME280;32676;52.630;4.896;2023-04-07T12:18:23;102732.66;;;11.23;78.16
46942;BME280;32676;52.630;4.896;2023-04-07T12:20:51;102711.63;;;11.17;77.74
46942;BME280;32676;52.630;4.896;2023-04-07T12:23:17;102701.09;;;11.17;77.50
46942;BME280;32676;52.630;4.896;2023-04-07T12:25:44;102724.78;;;11.21;77.59
46942;BME280;32676;52.630;4.896;2023-04-07T12:28:10;102739.66;;;11.27;77.80
46942;BME280;32676;52.630;4.896;2023-04-07T12:30:36;102774.72;;;11.32;77.70
46942;BME280;32676;52.630;4.896;2023-04-07T12:33:03;102780.00;;;11.35;77.26
46942;BME280;32676;52.630;4.896;2023-04-07T12:35:29;102819.44;;;11.44;76.90
46942;BME280;32676;52.630;4.896;2023-04-07T12:37:57;102836.97;;;11.48;76.72
46942;BME280;32676;52.630;4.896;2023-04-07T12:40:23;102831.69;;;11.47;76.44
46942;BME280;32676;52.630;4.896;2023-04-07T12:42:50;102813.28;;;11.42;76.12
46942;BME280;32676;52.630;4.896;2023-04-07T12:45:16;102818.53;;;11.42;76.19
46942;BME280;32676;52.630;4.896;2023-04-07T12:47:43;102817.66;;;11.45;75.99
46942;BME280;32676;52.630;4.896;2023-04-07T12:50:09;102815.03;;;11.43;76.07
46942;BME280;32676;52.630;4.896;2023-04-07T12:52:36;102801.00;;;11.41;75.96
46942;BME280;32676;52.630;4.896;2023-04-07T12:55:04;102816.81;;;11.44;76.00
46942;BME280;32676;52.630;4.896;2023-04-07T12:57:31;102819.41;;;11.46;76.02
46942;BME280;32676;52.630;4.896;2023-04-07T12:59:57;102830.84;;;11.46;75.79
46942;BME280;32676;52.630;4.896;2023-04-07T13:02:24;102827.31;;;11.47;75.71